createdAt,value
2019-02-25T00:00:31.182Z,99.90
2019-02-25T00:03:20.116Z,99.90
2019-02-25T00:06:09.001Z,99.90
2019-02-25T00:08:58.276Z,99.90
2019-02-25T00:11:49.218Z,99.90
2019-02-25T00:14:38.671Z,99.90
2019-02-25T00:17:27.746Z,99.90
2019-02-25T00:20:17.513Z,99.90
2019-02-25T00:23:06.069Z,99.90
2019-02-25T00:25:55.628Z,99.90
2019-02-25T00:28:44.661Z,99.90
2019-02-25T00:31:33.650Z,99.90
2019-02-25T00:34:22.886Z,99.90
2019-02-25T00:37:12.708Z,99.90
2019-02-25T00:40:01.770Z,99.90
2019-02-25T00:42:51.048Z,99.90
2019-02-25T00:45:40.419Z,99.90
2019-02-25T00:48:29.582Z,99.90
2019-02-25T00:51:18.748Z,99.90
2019-02-25T00:54:07.192Z,99.90
2019-02-25T00:56:56.053Z,99.90
2019-02-25T00:59:45.369Z,99.90
2019-02-25T01:02:34.693Z,99.90
2019-02-25T01:05:24.048Z,99.90
2019-02-25T01:08:13.547Z,99.90
2019-02-25T01:11:02.654Z,99.90
2019-02-25T01:13:51.877Z,99.90
2019-02-25T01:16:41.351Z,99.90
2019-02-25T01:19:30.175Z,99.90
2019-02-25T01:22:19.377Z,99.90
2019-02-25T01:25:13.382Z,99.90
2019-02-25T01:28:02.729Z,99.90
2019-02-25T01:30:51.902Z,99.90
2019-02-25T01:33:41.240Z,99.90
2019-02-25T01:36:30.289Z,99.90
2019-02-25T01:39:19.092Z,99.90
2019-02-25T01:42:07.934Z,99.90
2019-02-25T01:44:57.523Z,99.90
2019-02-25T01:47:47.112Z,99.90
2019-02-25T01:50:35.803Z,99.90
2019-02-25T01:53:25.134Z,99.90
2019-02-25T01:56:14.733Z,99.90
2019-02-25T01:59:04.178Z,99.90
2019-02-25T02:01:53.539Z,99.90
2019-02-25T02:04:43.533Z,99.90
2019-02-25T02:07:32.920Z,99.90
2019-02-25T02:10:21.764Z,99.90
2019-02-25T02:13:14.189Z,99.90
2019-02-25T02:16:01.435Z,99.90
2019-02-25T02:18:50.804Z,99.90
2019-02-25T02:21:40.291Z,99.90
2019-02-25T02:24:29.853Z,99.90
2019-02-25T02:27:18.880Z,99.90
2019-02-25T02:30:12.211Z,99.90
2019-02-25T02:33:01.500Z,99.90
2019-02-25T02:35:50.412Z,99.90
2019-02-25T02:38:39.258Z,99.90
2019-02-25T02:41:28.441Z,99.90
2019-02-25T02:44:20.549Z,99.90
2019-02-25T02:47:35.654Z,99.90
2019-02-25T02:50:25.647Z,99.90
2019-02-25T02:53:14.152Z,99.90
2019-02-25T02:56:03.152Z,99.90
2019-02-25T02:58:52.600Z,99.90
2019-02-25T03:01:42.486Z,99.90
2019-02-25T03:04:31.877Z,99.90
2019-02-25T03:07:21.267Z,99.90
2019-02-25T03:10:14.242Z,99.90
2019-02-25T03:13:03.375Z,99.90
2019-02-25T03:15:52.549Z,99.90
2019-02-25T03:18:41.478Z,99.90
2019-02-25T03:21:30.367Z,99.90
2019-02-25T03:24:19.265Z,99.90
2019-02-25T03:27:08.699Z,99.90
2019-02-25T03:29:57.826Z,99.90
2019-02-25T03:32:47.648Z,99.90
2019-02-25T03:35:36.800Z,99.90
2019-02-25T03:38:26.294Z,99.90
2019-02-25T03:41:15.078Z,99.90
2019-02-25T03:44:03.692Z,99.90
2019-02-25T03:46:52.874Z,99.90
2019-02-25T03:49:41.973Z,99.90
2019-02-25T03:52:31.612Z,99.90
2019-02-25T03:55:21.631Z,99.90
2019-02-25T03:58:10.868Z,99.90
2019-02-25T04:01:00.234Z,99.90
2019-02-25T04:03:49.515Z,99.90
2019-02-25T04:06:39.137Z,99.90
2019-02-25T04:09:29.075Z,99.90
2019-02-25T04:12:17.679Z,99.90
2019-02-25T04:15:19.956Z,99.90
2019-02-25T04:18:08.660Z,99.90
2019-02-25T04:20:57.385Z,99.90
2019-02-25T04:23:46.914Z,99.90
2019-02-25T04:26:35.528Z,99.90
2019-02-25T04:29:24.707Z,99.90
2019-02-25T04:32:14.160Z,99.90
2019-02-25T04:35:03.452Z,99.90
2019-02-25T04:37:52.616Z,99.90
2019-02-25T04:40:42.034Z,99.90
2019-02-25T04:43:30.622Z,99.90
2019-02-25T04:46:19.715Z,99.90
2019-02-25T04:49:08.502Z,99.90
2019-02-25T04:51:57.639Z,99.90
2019-02-25T04:54:47.133Z,99.90
2019-02-25T04:57:36.691Z,99.90
2019-02-25T05:00:27.126Z,99.90
2019-02-25T05:03:16.178Z,99.90
2019-02-25T05:06:06.033Z,99.90
2019-02-25T05:08:55.328Z,99.90
2019-02-25T05:11:45.080Z,99.90
2019-02-25T05:14:34.153Z,99.90
2019-02-25T05:17:23.009Z,99.90
2019-02-25T05:20:11.581Z,99.90
2019-02-25T05:23:00.671Z,99.90
2019-02-25T05:25:49.744Z,99.90
2019-02-25T05:28:39.580Z,99.90
2019-02-25T05:31:28.260Z,99.90
2019-02-25T05:34:17.702Z,99.90
2019-02-25T05:37:06.151Z,99.90
2019-02-25T05:39:55.626Z,99.90
2019-02-25T05:42:44.995Z,99.90
2019-02-25T05:45:33.939Z,99.90
2019-02-25T05:48:23.228Z,99.90
2019-02-25T05:51:12.289Z,99.90
2019-02-25T05:54:01.556Z,99.90
2019-02-25T05:56:50.885Z,99.90
2019-02-25T05:59:40.309Z,99.90
2019-02-25T06:02:29.879Z,99.90
2019-02-25T06:05:19.357Z,99.90
2019-02-25T06:08:08.612Z,99.90
2019-02-25T06:10:57.791Z,99.90
2019-02-25T06:13:46.865Z,99.90
2019-02-25T06:16:36.027Z,99.90
2019-02-25T06:19:25.167Z,99.90
2019-02-25T06:22:14.158Z,99.90
2019-02-25T06:25:03.628Z,99.90
2019-02-25T06:27:53.288Z,99.90
2019-02-25T06:30:42.504Z,99.90
2019-02-25T06:33:31.617Z,99.90
2019-02-25T06:36:21.152Z,99.90
2019-02-25T06:39:10.503Z,99.90
2019-02-25T06:41:59.758Z,99.90
2019-02-25T06:44:48.825Z,99.90
2019-02-25T06:47:38.396Z,99.90
2019-02-25T06:50:27.481Z,99.90
2019-02-25T06:53:16.848Z,99.90
2019-02-25T06:56:06.135Z,99.90
2019-02-25T06:58:55.470Z,99.90
2019-02-25T07:01:44.747Z,99.90
2019-02-25T07:04:38.719Z,99.90
2019-02-25T07:07:32.287Z,99.90
2019-02-25T07:10:22.375Z,99.90
2019-02-25T07:13:16.051Z,99.90
2019-02-25T07:16:18.962Z,99.90
2019-02-25T07:19:18.640Z,99.90
2019-02-25T07:22:20.712Z,99.90
2019-02-25T07:25:14.192Z,99.90
2019-02-25T07:28:07.851Z,99.90
2019-02-25T07:31:15.114Z,99.90
2019-02-25T07:34:23.245Z,99.90
2019-02-25T07:37:19.266Z,99.90
2019-02-25T07:40:20.318Z,99.90
2019-02-25T07:43:15.624Z,99.90
2019-02-25T07:46:06.796Z,99.90
2019-02-25T07:49:13.325Z,99.90
2019-02-25T07:52:03.801Z,99.90
2019-02-25T07:54:52.801Z,99.90
2019-02-25T07:57:43.888Z,99.90
2019-02-25T08:00:33.083Z,99.90
2019-02-25T08:03:39.669Z,99.90
2019-02-25T08:06:30.422Z,99.90
2019-02-25T08:09:21.186Z,99.90
2019-02-25T08:12:10.435Z,99.90
2019-02-25T08:15:03.312Z,99.90
2019-02-25T08:18:10.206Z,99.90
2019-02-25T08:21:17.706Z,99.90
2019-02-25T08:24:17.481Z,99.90
2019-02-25T08:27:18.003Z,99.90
2019-02-25T08:30:13.576Z,99.90
2019-02-25T08:33:20.027Z,99.90
2019-02-25T08:36:24.010Z,99.90
2019-02-25T08:39:15.354Z,99.90
2019-02-25T08:42:11.953Z,99.90
2019-02-25T08:45:02.660Z,99.90
2019-02-25T08:47:53.317Z,99.90
2019-02-25T08:50:42.346Z,99.90
2019-02-25T08:53:31.623Z,99.90
2019-02-25T08:56:20.720Z,99.90
2019-02-25T08:59:09.957Z,99.90
2019-02-25T09:01:58.680Z,99.90
2019-02-25T09:04:49.311Z,99.90
2019-02-25T09:07:38.858Z,99.90
2019-02-25T09:10:28.260Z,99.90
2019-02-25T09:13:17.562Z,99.90
2019-02-25T09:16:06.894Z,99.90
2019-02-25T09:18:57.907Z,99.90
2019-02-25T09:21:47.592Z,99.90
2019-02-25T09:24:36.512Z,99.90
2019-02-25T09:27:25.764Z,99.90
2019-02-25T09:30:20.173Z,99.90
2019-02-25T09:33:09.680Z,99.90
2019-02-25T09:35:59.059Z,99.90
2019-02-25T09:38:47.672Z,99.90
2019-02-25T09:41:37.086Z,99.90
2019-02-25T09:44:27.192Z,99.90
2019-02-25T09:47:16.447Z,99.90
2019-02-25T09:50:10.713Z,99.90
2019-02-25T09:52:59.690Z,99.90
2019-02-25T09:55:48.747Z,99.90
2019-02-25T09:58:38.597Z,99.90
2019-02-25T10:01:27.378Z,99.90
2019-02-25T10:04:16.053Z,99.90
2019-02-25T10:07:04.980Z,99.90
2019-02-25T10:09:54.389Z,99.90
2019-02-25T10:12:44.063Z,99.90
2019-02-25T10:15:33.426Z,99.90
2019-02-25T10:18:22.707Z,99.90
2019-02-25T10:21:11.756Z,99.90
2019-02-25T10:24:00.949Z,99.90
2019-02-25T10:26:50.001Z,99.90
2019-02-25T10:29:38.719Z,99.90
2019-02-25T10:32:28.557Z,99.90
2019-02-25T10:35:24.869Z,99.90
2019-02-25T10:38:14.537Z,99.90
2019-02-25T10:41:04.146Z,99.90
2019-02-25T10:43:53.709Z,99.90
2019-02-25T10:46:44.823Z,99.90
2019-02-25T10:49:34.007Z,99.90
2019-02-25T10:52:23.049Z,99.90
2019-02-25T10:55:44.353Z,99.90
2019-02-25T10:58:33.529Z,99.90
2019-02-25T11:01:24.557Z,99.90
2019-02-25T11:04:12.754Z,99.90
2019-02-25T11:07:03.509Z,99.90
2019-02-25T11:09:54.950Z,99.90
2019-02-25T11:12:44.443Z,99.90
2019-02-25T11:15:36.902Z,99.90
2019-02-25T11:18:26.726Z,99.90
2019-02-25T11:21:17.024Z,99.90
2019-02-25T11:24:06.390Z,99.90
2019-02-25T11:26:56.966Z,99.90
2019-02-25T11:29:48.353Z,99.90
2019-02-25T11:32:37.163Z,99.90
2019-02-25T11:35:26.429Z,99.90
2019-02-25T11:38:15.807Z,99.90
2019-02-25T11:41:07.083Z,99.90
2019-02-25T11:43:55.812Z,99.90
2019-02-25T11:46:44.817Z,99.90
2019-02-25T11:49:34.314Z,99.90
2019-02-25T11:52:23.586Z,99.90
2019-02-25T11:55:16.987Z,99.90
2019-02-25T11:58:06.391Z,99.90
2019-02-25T12:00:55.475Z,99.90
2019-02-25T12:03:44.849Z,99.90
2019-02-25T12:06:33.505Z,99.90
2019-02-25T12:09:22.891Z,99.90
2019-02-25T12:12:11.893Z,99.90
2019-02-25T12:15:01.432Z,99.90
2019-02-25T12:17:50.598Z,99.90
2019-02-25T12:20:39.432Z,99.90
2019-02-25T12:23:28.418Z,99.90
2019-02-25T12:26:17.878Z,99.90
2019-02-25T12:29:10.826Z,99.90
2019-02-25T12:31:58.455Z,99.90
2019-02-25T12:34:47.854Z,99.90
2019-02-25T12:37:36.800Z,99.90
2019-02-25T12:40:26.286Z,99.90
2019-02-25T12:43:15.636Z,99.90
2019-02-25T12:46:05.235Z,99.90
2019-02-25T12:48:54.166Z,99.90
2019-02-25T12:51:43.157Z,99.90
2019-02-25T12:54:31.510Z,99.90
2019-02-25T12:57:19.736Z,99.90
2019-02-25T13:00:25.095Z,99.90
2019-02-25T13:03:13.190Z,99.90
2019-02-25T13:06:01.819Z,99.90
2019-02-25T13:08:50.103Z,99.90
2019-02-25T13:11:39.911Z,99.40
2019-02-25T13:14:28.674Z,99.10
2019-02-25T13:17:17.069Z,98.90
2019-02-25T13:20:08.441Z,99.70
2019-02-25T13:22:56.599Z,99.50
2019-02-25T13:25:44.636Z,98.30
2019-02-25T13:28:33.597Z,98.00
2019-02-25T13:31:22.254Z,98.40
2019-02-25T13:34:09.788Z,98.30
2019-02-25T13:36:57.930Z,97.80
2019-02-25T13:39:46.754Z,99.90
2019-02-25T13:42:35.438Z,97.90
2019-02-25T13:45:23.611Z,97.50
2019-02-25T13:48:12.037Z,97.50
2019-02-25T13:51:00.202Z,99.30
2019-02-25T13:53:48.810Z,99.90
2019-02-25T13:56:37.062Z,99.90
2019-02-25T13:59:25.834Z,99.90
2019-02-25T14:02:14.158Z,99.00
2019-02-25T14:05:02.739Z,98.70
2019-02-25T14:07:51.295Z,99.90
2019-02-25T14:10:39.919Z,99.40
2019-02-25T14:13:28.499Z,99.50
2019-02-25T14:16:16.692Z,99.90
2019-02-25T14:19:05.819Z,99.90
2019-02-25T14:21:55.990Z,99.90
2019-02-25T14:24:43.221Z,99.90
2019-02-25T14:27:31.219Z,99.90
2019-02-25T14:30:22.811Z,99.90
2019-02-25T14:33:12.613Z,99.90
2019-02-25T14:36:01.632Z,99.90
2019-02-25T14:38:51.632Z,99.90
2019-02-25T14:41:40.284Z,99.90
2019-02-25T14:44:32.275Z,99.90
2019-02-25T14:47:22.260Z,99.90
2019-02-25T14:50:13.753Z,99.90
2019-02-25T14:53:03.941Z,99.90
2019-02-25T14:55:55.273Z,99.90
2019-02-25T14:58:43.071Z,99.90
2019-02-25T15:01:32.126Z,99.90
2019-02-25T15:04:20.388Z,99.90
2019-02-25T15:07:11.352Z,99.90
2019-02-25T15:10:02.095Z,99.90
2019-02-25T15:12:53.763Z,99.90
2019-02-25T15:15:41.809Z,99.90
2019-02-25T15:18:31.312Z,99.90
2019-02-25T15:21:19.745Z,99.90
2019-02-25T15:24:08.890Z,99.90
2019-02-25T15:26:59.864Z,99.90
2019-02-25T15:29:48.973Z,99.90
2019-02-25T15:32:39.460Z,99.90
2019-02-25T15:35:31.430Z,99.90
2019-02-25T15:38:17.738Z,99.90
2019-02-25T15:41:07.333Z,99.90
2019-02-25T15:43:58.054Z,99.90
2019-02-25T15:46:46.116Z,99.90
2019-02-25T15:49:34.829Z,99.90
2019-02-25T15:52:23.303Z,99.90
2019-02-25T15:55:17.406Z,99.90
2019-02-25T15:58:06.389Z,99.90
2019-02-25T16:00:57.216Z,99.90
2019-02-25T16:03:45.386Z,99.90
2019-02-25T16:06:35.522Z,99.90
2019-02-25T16:09:26.040Z,99.90
2019-02-25T16:12:14.091Z,99.90
2019-02-25T16:15:02.857Z,99.90
2019-02-25T16:17:51.672Z,99.90
2019-02-25T16:20:40.676Z,99.90
2019-02-25T16:23:30.170Z,99.90
2019-02-25T16:26:20.105Z,99.90
2019-02-25T16:29:09.469Z,99.90
2019-02-25T16:32:01.759Z,99.90
2019-02-25T16:34:48.613Z,99.90
2019-02-25T16:37:37.680Z,99.90
2019-02-25T16:40:28.702Z,99.90
2019-02-25T16:43:18.957Z,99.90
2019-02-25T16:46:09.242Z,99.90
2019-02-25T16:48:57.648Z,99.90
2019-02-25T16:51:45.920Z,99.90
2019-02-25T16:54:34.790Z,99.90
2019-02-25T16:57:24.680Z,99.90
2019-02-25T17:00:16.279Z,99.90
2019-02-25T17:03:06.571Z,99.90
2019-02-25T17:05:55.250Z,99.90
2019-02-25T17:08:44.184Z,99.90
2019-02-25T17:11:34.838Z,99.90
2019-02-25T17:14:25.648Z,99.90
2019-02-25T17:17:15.471Z,99.90
2019-02-25T17:20:13.128Z,99.90
2019-02-25T17:23:01.903Z,99.90
2019-02-25T17:25:51.232Z,99.90
2019-02-25T17:28:40.333Z,99.90
2019-02-25T17:31:30.623Z,99.90
2019-02-25T17:34:21.132Z,99.90
2019-02-25T17:37:12.489Z,99.90
2019-02-25T17:40:04.394Z,99.90
2019-02-25T17:42:54.060Z,99.90
2019-02-25T17:45:43.206Z,99.90
2019-02-25T17:48:32.510Z,99.90
2019-02-25T17:51:22.659Z,99.90
2019-02-25T17:54:12.500Z,99.90
2019-02-25T17:57:04.901Z,99.90
2019-02-25T17:59:54.881Z,99.90
2019-02-25T18:02:44.161Z,99.90
2019-02-25T18:05:35.394Z,99.90
2019-02-25T18:08:24.440Z,99.90
2019-02-25T18:11:15.609Z,99.90
2019-02-25T18:14:04.718Z,99.90
2019-02-25T18:16:53.947Z,99.90
2019-02-25T18:19:45.705Z,99.90
2019-02-25T18:22:34.882Z,99.90
2019-02-25T18:25:24.409Z,99.90
2019-02-25T18:28:15.152Z,99.90
2019-02-25T18:31:09.170Z,99.90
2019-02-25T18:33:56.269Z,99.90
2019-02-25T18:36:46.739Z,99.90
2019-02-25T18:39:35.900Z,99.90
2019-02-25T18:42:25.199Z,99.90
2019-02-25T18:45:20.780Z,99.90
2019-02-25T18:48:10.291Z,99.90
2019-02-25T18:51:01.160Z,99.90
2019-02-25T18:53:50.164Z,99.90
2019-02-25T18:56:40.390Z,99.90
2019-02-25T18:59:30.649Z,99.90
2019-02-25T19:02:20.205Z,99.90
2019-02-25T19:05:13.626Z,99.90
2019-02-25T19:08:00.202Z,99.90
2019-02-25T19:10:51.152Z,99.90
2019-02-25T19:13:39.755Z,99.90
2019-02-25T19:16:28.972Z,99.90
2019-02-25T19:19:19.246Z,99.90
2019-02-25T19:22:10.666Z,99.90
2019-02-25T19:25:00.038Z,99.90
2019-02-25T19:27:50.108Z,99.90
2019-02-25T19:30:39.708Z,99.90
2019-02-25T19:33:31.157Z,99.90
2019-02-25T19:36:19.525Z,99.90
2019-02-25T19:39:14.228Z,99.90
2019-02-25T19:42:02.898Z,99.90
2019-02-25T19:44:51.863Z,99.90
2019-02-25T19:47:43.117Z,99.90
2019-02-25T19:50:32.863Z,99.90
2019-02-25T19:53:22.136Z,99.90
2019-02-25T19:56:11.179Z,99.90
2019-02-25T19:59:01.308Z,99.90
2019-02-25T20:01:51.318Z,99.90
2019-02-25T20:04:42.256Z,99.90
2019-02-25T20:07:33.266Z,99.90
2019-02-25T20:10:22.245Z,99.90
2019-02-25T20:13:11.319Z,99.90
2019-02-25T20:16:07.608Z,99.90
2019-02-25T20:18:53.699Z,99.90
2019-02-25T20:21:42.463Z,99.90
2019-02-25T20:24:32.488Z,99.90
2019-02-25T20:27:21.715Z,99.90
2019-02-25T20:30:19.263Z,99.90
2019-02-25T20:33:10.759Z,99.90
2019-02-25T20:36:01.316Z,99.90
2019-02-25T20:38:49.580Z,99.90
2019-02-25T20:41:38.767Z,99.90
2019-02-25T20:44:30.523Z,99.90
2019-02-25T20:47:19.131Z,99.90
2019-02-25T20:50:15.510Z,99.90
2019-02-25T20:53:06.521Z,99.90
2019-02-25T20:55:56.725Z,99.90
2019-02-25T20:58:47.378Z,99.90
2019-02-25T21:01:39.567Z,99.90
2019-02-25T21:04:27.826Z,99.90
2019-02-25T21:07:16.804Z,99.90
2019-02-25T21:10:17.276Z,99.90
2019-02-25T21:13:06.723Z,99.90
2019-02-25T21:15:58.222Z,99.90
2019-02-25T21:18:48.691Z,99.90
2019-02-25T21:21:38.984Z,99.90
2019-02-25T21:24:33.294Z,99.90
2019-02-25T21:27:26.180Z,99.90
2019-02-25T21:30:22.048Z,99.90
2019-02-25T21:33:13.299Z,99.90
2019-02-25T21:36:01.672Z,99.90
2019-02-25T21:38:51.610Z,99.90
2019-02-25T21:41:41.768Z,99.90
2019-02-25T21:44:31.550Z,99.90
2019-02-25T21:47:22.427Z,99.90
2019-02-25T21:50:19.856Z,99.90
2019-02-25T21:53:09.376Z,99.90
2019-02-25T21:56:02.962Z,99.90
2019-02-25T21:58:50.978Z,99.90
2019-02-25T22:01:41.105Z,99.90
2019-02-25T22:04:32.307Z,99.90
2019-02-25T22:07:24.996Z,99.90
2019-02-25T22:10:17.088Z,99.90
2019-02-25T22:13:08.794Z,99.90
2019-02-25T22:15:58.977Z,99.90
2019-02-25T22:18:48.360Z,99.90
2019-02-25T22:21:37.879Z,99.90
2019-02-25T22:24:29.077Z,99.90
2019-02-25T22:27:18.474Z,99.90
2019-02-25T22:30:17.113Z,99.90
2019-02-25T22:33:07.869Z,99.90
2019-02-25T22:35:56.617Z,99.90
2019-02-25T22:38:46.386Z,99.90
2019-02-25T22:41:35.674Z,99.90
2019-02-25T22:44:26.839Z,99.90
2019-02-25T22:47:17.835Z,99.90
2019-02-25T22:50:12.787Z,99.90
2019-02-25T22:53:03.643Z,99.90
2019-02-25T22:55:52.335Z,99.90
2019-02-25T22:58:42.991Z,99.90
2019-02-25T23:01:32.396Z,99.90
2019-02-25T23:04:24.211Z,99.90
2019-02-25T23:07:15.096Z,99.90
2019-02-25T23:10:06.502Z,99.90
2019-02-25T23:12:56.071Z,99.90
2019-02-25T23:15:46.672Z,99.90
2019-02-25T23:18:35.939Z,99.90
2019-02-25T23:21:26.968Z,99.90
2019-02-25T23:24:15.741Z,99.90
2019-02-25T23:27:05.175Z,99.90
2019-02-25T23:29:54.445Z,99.90
2019-02-25T23:32:44.026Z,99.90
2019-02-25T23:35:33.035Z,99.90
2019-02-25T23:38:21.898Z,99.90
2019-02-25T23:41:12.798Z,99.90
2019-02-25T23:44:01.482Z,99.90
2019-02-25T23:46:55.274Z,99.90
2019-02-25T23:49:43.709Z,99.90
2019-02-25T23:52:33.646Z,99.90
2019-02-25T23:55:24.938Z,99.90
2019-02-25T23:58:14.793Z,99.90
